KTUS/TUS METAR and TAF weather

Enter ICAO airport designator
Station Type Date Time Source
KTUS METAR 2020/09/18 22:53 UTC NOAA

KTUS 182253Z 11006KT 10SM CLR 37/00 A2996 RMK AO2 SLP089 T03670000


Station Type Date Time Source
KTUS Decoded METAR 2020/09/18 22:53 UTC NOAA

TUCSON INTERNATIONAL AIRPORT , AZ, United States (KTUS) 32-08N 110-57W 786M
Sep 18, 2020 - 06:53 PM EDT / 2020.09.18 2253 UTC
Wind: from the ESE (110 degrees) at 7 MPH (6 KT):0
Visibility: 10 mile(s):0
Sky conditions: clear
Temperature: 98.1 F (36.7 C)
Dew Point: 32.0 F (0.0 C)
Relative Humidity: 9%
Pressure (altimeter): 29.96 in. Hg (1014 hPa)
ob: KTUS 182253Z 11006KT 10SM CLR 37/00 A2996 RMK AO2 SLP089 T03670000
cycle: 23

Station Type Date Time Source
KTUS TAF 2020/09/18 18:27 UTC NOAA

TAF KTUS 181724Z 1818/1918 12014G22KT P6SM SKC

Example: see airport list